sensor_id;sensor_type;location;lat;lon;timestamp;temperature;humidity
33741;DHT22;20065;48.380;10.892;2022-07-23T00:01:43;24.60;93.80
33741;DHT22;20065;48.380;10.892;2022-07-23T00:04:29;24.30;94.10
33741;DHT22;20065;48.380;10.892;2022-07-23T00:07:15;24.40;94.00
33741;DHT22;20065;48.380;10.892;2022-07-23T00:10:02;24.10;95.10
33741;DHT22;20065;48.380;10.892;2022-07-23T00:12:49;23.80;95.30
33741;DHT22;20065;48.380;10.892;2022-07-23T00:15:35;24.00;95.80
33741;DHT22;20065;48.380;10.892;2022-07-23T00:18:21;24.00;95.40
33741;DHT22;20065;48.380;10.892;2022-07-23T00:21:07;24.10;94.90
33741;DHT22;20065;48.380;10.892;2022-07-23T00:23:53;24.10;94.90
33741;DHT22;20065;48.380;10.892;2022-07-23T00:26:40;23.90;94.90
33741;DHT22;20065;48.380;10.892;2022-07-23T00:29:26;23.90;94.30
33741;DHT22;20065;48.380;10.892;2022-07-23T00:32:12;24.00;94.20
33741;DHT22;20065;48.380;10.892;2022-07-23T00:34:58;24.10;93.50
33741;DHT22;20065;48.380;10.892;2022-07-23T00:37:44;24.30;91.90
33741;DHT22;20065;48.380;10.892;2022-07-23T00:40:31;24.40;91.20
33741;DHT22;20065;48.380;10.892;2022-07-23T00:43:20;24.40;91.80
33741;DHT22;20065;48.380;10.892;2022-07-23T00:46:06;24.20;92.60
33741;DHT22;20065;48.380;10.892;2022-07-23T00:48:52;24.00;92.90
33741;DHT22;20065;48.380;10.892;2022-07-23T00:51:39;24.10;91.20
33741;DHT22;20065;48.380;10.892;2022-07-23T00:54:27;23.70;94.90
33741;DHT22;20065;48.380;10.892;2022-07-23T00:57:13;22.50;99.90
33741;DHT22;20065;48.380;10.892;2022-07-23T00:59:59;21.60;99.90
33741;DHT22;20065;48.380;10.892;2022-07-23T01:02:45;21.10;99.90
33741;DHT22;20065;48.380;10.892;2022-07-23T01:05:31;20.80;99.90
33741;DHT22;20065;48.380;10.892;2022-07-23T01:08:18;20.70;99.90
33741;DHT22;20065;48.380;10.892;2022-07-23T01:11:04;20.80;99.90
33741;DHT22;20065;48.380;10.892;2022-07-23T01:13:51;20.60;99.90
33741;DHT22;20065;48.380;10.892;2022-07-23T01:16:38;20.20;99.90
33741;DHT22;20065;48.380;10.892;2022-07-23T01:19:24;20.10;99.90
33741;DHT22;20065;48.380;10.892;2022-07-23T01:22:11;20.00;99.90
33741;DHT22;20065;48.380;10.892;2022-07-23T01:24:57;19.90;99.90
33741;DHT22;20065;48.380;10.892;2022-07-23T01:27:45;19.80;99.90
33741;DHT22;20065;48.380;10.892;2022-07-23T01:30:31;19.70;99.90
33741;DHT22;20065;48.380;10.892;2022-07-23T01:33:19;19.70;99.90
33741;DHT22;20065;48.380;10.892;2022-07-23T01:36:05;19.80;99.90
33741;DHT22;20065;48.380;10.892;2022-07-23T01:38:52;19.70;99.90
33741;DHT22;20065;48.380;10.892;2022-07-23T01:41:38;19.50;99.90
33741;DHT22;20065;48.380;10.892;2022-07-23T01:44:24;19.30;99.90
33741;DHT22;20065;48.380;10.892;2022-07-23T01:47:10;19.30;99.90
33741;DHT22;20065;48.380;10.892;2022-07-23T01:49:56;19.20;99.90
33741;DHT22;20065;48.380;10.892;2022-07-23T01:53:05;19.20;99.90
33741;DHT22;20065;48.380;10.892;2022-07-23T01:55:54;19.20;99.90
33741;DHT22;20065;48.380;10.892;2022-07-23T01:58:41;19.30;99.90
33741;DHT22;20065;48.380;10.892;2022-07-23T02:01:28;19.30;99.90
33741;DHT22;20065;48.380;10.892;2022-07-23T02:04:14;19.20;99.90
33741;DHT22;20065;48.380;10.892;2022-07-23T02:07:00;19.30;99.90
33741;DHT22;20065;48.380;10.892;2022-07-23T02:09:47;19.30;99.90
33741;DHT22;20065;48.380;10.892;2022-07-23T02:12:33;19.40;99.90
33741;DHT22;20065;48.380;10.892;2022-07-23T02:15:19;19.30;99.90
33741;DHT22;20065;48.380;10.892;2022-07-23T02:18:05;19.30;99.90
33741;DHT22;20065;48.380;10.892;2022-07-23T02:20:52;19.40;99.90
33741;DHT22;20065;48.380;10.892;2022-07-23T02:23:38;19.40;99.90
33741;DHT22;20065;48.380;10.892;2022-07-23T02:26:24;19.50;99.90
33741;DHT22;20065;48.380;10.892;2022-07-23T02:29:13;19.60;99.90
33741;DHT22;20065;48.380;10.892;2022-07-23T02:31:59;19.60;99.90
33741;DHT22;20065;48.380;10.892;2022-07-23T02:34:45;19.60;99.90
33741;DHT22;20065;48.380;10.892;2022-07-23T02:37:32;19.60;99.90
33741;DHT22;20065;48.380;10.892;2022-07-23T02:40:18;19.60;99.90
33741;DHT22;20065;48.380;10.892;2022-07-23T02:43:05;19.60;99.90
33741;DHT22;20065;48.380;10.892;2022-07-23T02:45:51;19.60;99.90
33741;DHT22;20065;48.380;10.892;2022-07-23T02:48:37;19.70;99.90
33741;DHT22;20065;48.380;10.892;2022-07-23T02:51:23;19.80;99.90
33741;DHT22;20065;48.380;10.892;2022-07-23T02:54:15;19.60;99.90
33741;DHT22;20065;48.380;10.892;2022-07-23T02:57:02;19.60;99.90
33741;DHT22;20065;48.380;10.892;2022-07-23T02:59:48;19.50;99.90
33741;DHT22;20065;48.380;10.892;2022-07-23T03:02:34;19.50;99.90
33741;DHT22;20065;48.380;10.892;2022-07-23T03:05:20;19.60;99.90
33741;DHT22;20065;48.380;10.892;2022-07-23T03:08:07;19.70;99.90
33741;DHT22;20065;48.380;10.892;2022-07-23T03:10:56;19.70;99.90
33741;DHT22;20065;48.380;10.892;2022-07-23T03:13:42;19.80;99.90
33741;DHT22;20065;48.380;10.892;2022-07-23T03:16:28;19.90;99.90
33741;DHT22;20065;48.380;10.892;2022-07-23T03:19:15;19.80;99.90
33741;DHT22;20065;48.380;10.892;2022-07-23T03:22:01;19.80;99.90
33741;DHT22;20065;48.380;10.892;2022-07-23T03:24:49;19.80;99.90
33741;DHT22;20065;48.380;10.892;2022-07-23T03:27:53;19.60;99.90
33741;DHT22;20065;48.380;10.892;2022-07-23T03:30:40;19.40;99.90
33741;DHT22;20065;48.380;10.892;2022-07-23T03:33:26;19.30;99.90
33741;DHT22;20065;48.380;10.892;2022-07-23T03:36:13;19.20;99.90
33741;DHT22;20065;48.380;10.892;2022-07-23T03:39:02;19.20;99.90
33741;DHT22;20065;48.380;10.892;2022-07-23T03:41:48;19.20;99.90
33741;DHT22;20065;48.380;10.892;2022-07-23T03:44:34;19.30;99.90
33741;DHT22;20065;48.380;10.892;2022-07-23T03:47:22;19.40;99.90
33741;DHT22;20065;48.380;10.892;2022-07-23T03:50:09;19.50;99.90
33741;DHT22;20065;48.380;10.892;2022-07-23T03:52:55;19.40;99.90
33741;DHT22;20065;48.380;10.892;2022-07-23T03:55:42;19.40;99.90
33741;DHT22;20065;48.380;10.892;2022-07-23T03:58:28;19.40;99.90
33741;DHT22;20065;48.380;10.892;2022-07-23T04:01:14;19.40;99.90
33741;DHT22;20065;48.380;10.892;2022-07-23T04:04:01;19.20;99.90
33741;DHT22;20065;48.380;10.892;2022-07-23T04:06:48;19.20;99.90
33741;DHT22;20065;48.380;10.892;2022-07-23T04:09:35;19.10;99.90
33741;DHT22;20065;48.380;10.892;2022-07-23T04:12:21;19.30;99.90
33741;DHT22;20065;48.380;10.892;2022-07-23T04:15:08;19.20;99.90
33741;DHT22;20065;48.380;10.892;2022-07-23T04:17:54;19.10;99.90
33741;DHT22;20065;48.380;10.892;2022-07-23T04:20:45;19.20;99.90
33741;DHT22;20065;48.380;10.892;2022-07-23T04:23:31;19.40;99.90
33741;DHT22;20065;48.380;10.892;2022-07-23T04:26:17;19.40;99.90
33741;DHT22;20065;48.380;10.892;2022-07-23T04:29:05;19.40;99.90
33741;DHT22;20065;48.380;10.892;2022-07-23T04:31:51;19.50;99.90
33741;DHT22;20065;48.380;10.892;2022-07-23T04:34:37;19.50;99.90
33741;DHT22;20065;48.380;10.892;2022-07-23T04:37:24;19.60;99.90
33741;DHT22;20065;48.380;10.892;2022-07-23T04:40:12;19.60;99.90
33741;DHT22;20065;48.380;10.892;2022-07-23T04:42:58;19.50;99.90
33741;DHT22;20065;48.380;10.892;2022-07-23T04:45:44;19.60;99.90
33741;DHT22;20065;48.380;10.892;2022-07-23T04:48:31;19.70;99.90
33741;DHT22;20065;48.380;10.892;2022-07-23T04:51:26;19.80;99.90
33741;DHT22;20065;48.380;10.892;2022-07-23T04:54:12;19.90;99.90
33741;DHT22;20065;48.380;10.892;2022-07-23T04:56:58;20.00;99.90
33741;DHT22;20065;48.380;10.892;2022-07-23T04:59:45;20.00;99.90
33741;DHT22;20065;48.380;10.892;2022-07-23T05:02:31;19.90;99.90
33741;DHT22;20065;48.380;10.892;2022-07-23T05:05:18;19.90;99.90
33741;DHT22;20065;48.380;10.892;2022-07-23T05:08:04;20.10;99.90
33741;DHT22;20065;48.380;10.892;2022-07-23T05:10:51;20.10;99.90
33741;DHT22;20065;48.380;10.892;2022-07-23T05:13:39;20.10;99.90
33741;DHT22;20065;48.380;10.892;2022-07-23T05:16:27;20.10;99.90
33741;DHT22;20065;48.380;10.892;2022-07-23T05:19:17;20.00;99.90
33741;DHT22;20065;48.380;10.892;2022-07-23T05:22:05;19.80;99.90
33741;DHT22;20065;48.380;10.892;2022-07-23T05:24:51;19.60;99.90
33741;DHT22;20065;48.380;10.892;2022-07-23T05:27:37;19.50;99.90
33741;DHT22;20065;48.380;10.892;2022-07-23T05:30:24;19.50;99.90
33741;DHT22;20065;48.380;10.892;2022-07-23T05:33:14;19.70;99.90
33741;DHT22;20065;48.380;10.892;2022-07-23T05:36:04;19.70;99.90
33741;DHT22;20065;48.380;10.892;2022-07-23T05:38:52;19.70;99.90
33741;DHT22;20065;48.380;10.892;2022-07-23T05:41:39;19.80;99.90
33741;DHT22;20065;48.380;10.892;2022-07-23T05:44:26;20.00;99.90
33741;DHT22;20065;48.380;10.892;2022-07-23T05:47:13;20.00;99.90
33741;DHT22;20065;48.380;10.892;2022-07-23T05:50:00;19.60;99.90
33741;DHT22;20065;48.380;10.892;2022-07-23T05:52:53;19.20;99.90
33741;DHT22;20065;48.380;10.892;2022-07-23T05:55:45;19.30;99.90
33741;DHT22;20065;48.380;10.892;2022-07-23T05:58:31;19.40;99.90
33741;DHT22;20065;48.380;10.892;2022-07-23T06:01:17;19.60;99.90
33741;DHT22;20065;48.380;10.892;2022-07-23T06:04:10;19.50;99.90
33741;DHT22;20065;48.380;10.892;2022-07-23T06:07:01;19.60;99.90
33741;DHT22;20065;48.380;10.892;2022-07-23T06:09:48;20.00;99.90
33741;DHT22;20065;48.380;10.892;2022-07-23T06:12:35;19.90;99.90
33741;DHT22;20065;48.380;10.892;2022-07-23T06:15:21;19.90;99.90
33741;DHT22;20065;48.380;10.892;2022-07-23T06:18:07;19.60;99.90
33741;DHT22;20065;48.380;10.892;2022-07-23T06:20:53;19.40;99.90
33741;DHT22;20065;48.380;10.892;2022-07-23T06:23:40;19.30;99.90
33741;DHT22;20065;48.380;10.892;2022-07-23T06:26:26;19.10;99.90
33741;DHT22;20065;48.380;10.892;2022-07-23T06:29:12;19.00;99.90
33741;DHT22;20065;48.380;10.892;2022-07-23T06:31:59;19.10;99.90
33741;DHT22;20065;48.380;10.892;2022-07-23T06:34:45;19.10;99.90
33741;DHT22;20065;48.380;10.892;2022-07-23T06:37:31;19.20;99.90
33741;DHT22;20065;48.380;10.892;2022-07-23T06:40:17;19.10;99.90
33741;DHT22;20065;48.380;10.892;2022-07-23T06:43:03;19.30;99.90
33741;DHT22;20065;48.380;10.892;2022-07-23T06:45:49;19.50;99.90
33741;DHT22;20065;48.380;10.892;2022-07-23T06:48:36;19.40;99.90
33741;DHT22;20065;48.380;10.892;2022-07-23T06:51:22;19.40;99.90
33741;DHT22;20065;48.380;10.892;2022-07-23T06:54:08;19.70;99.90
33741;DHT22;20065;48.380;10.892;2022-07-23T06:56:54;19.80;99.90
33741;DHT22;20065;48.380;10.892;2022-07-23T06:59:40;19.90;99.90
33741;DHT22;20065;48.380;10.892;2022-07-23T07:02:27;20.00;99.90
33741;DHT22;20065;48.380;10.892;2022-07-23T07:05:14;20.00;99.90
33741;DHT22;20065;48.380;10.892;2022-07-23T07:08:00;20.20;99.90
33741;DHT22;20065;48.380;10.892;2022-07-23T07:10:46;20.10;99.90
33741;DHT22;20065;48.380;10.892;2022-07-23T07:13:33;19.90;99.90
33741;DHT22;20065;48.380;10.892;2022-07-23T07:16:19;19.50;99.90
33741;DHT22;20065;48.380;10.892;2022-07-23T07:19:05;19.40;99.90
33741;DHT22;20065;48.380;10.892;2022-07-23T07:21:51;19.40;99.90
33741;DHT22;20065;48.380;10.892;2022-07-23T07:24:37;19.40;99.90
33741;DHT22;20065;48.380;10.892;2022-07-23T07:27:23;19.10;99.90
33741;DHT22;20065;48.380;10.892;2022-07-23T07:30:10;19.20;99.90
33741;DHT22;20065;48.380;10.892;2022-07-23T07:32:57;19.30;99.90
33741;DHT22;20065;48.380;10.892;2022-07-23T07:35:43;19.50;99.90
33741;DHT22;20065;48.380;10.892;2022-07-23T07:38:29;19.20;99.90
33741;DHT22;20065;48.380;10.892;2022-07-23T07:41:15;19.40;99.90
33741;DHT22;20065;48.380;10.892;2022-07-23T07:44:02;19.10;99.90
33741;DHT22;20065;48.380;10.892;2022-07-23T07:46:48;19.20;99.90
33741;DHT22;20065;48.380;10.892;2022-07-23T07:49:34;19.50;99.90
33741;DHT22;20065;48.380;10.892;2022-07-23T07:52:20;19.70;99.90
33741;DHT22;20065;48.380;10.892;2022-07-23T07:55:07;19.90;99.90
33741;DHT22;20065;48.380;10.892;2022-07-23T07:57:54;19.80;99.90
33741;DHT22;20065;48.380;10.892;2022-07-23T08:00:40;19.90;99.90
33741;DHT22;20065;48.380;10.892;2022-07-23T08:03:26;20.00;99.90
33741;DHT22;20065;48.380;10.892;2022-07-23T08:06:13;20.00;99.90
33741;DHT22;20065;48.380;10.892;2022-07-23T08:08:59;19.90;99.90
33741;DHT22;20065;48.380;10.892;2022-07-23T08:11:45;19.60;99.90
33741;DHT22;20065;48.380;10.892;2022-07-23T08:14:31;19.70;99.90
33741;DHT22;20065;48.380;10.892;2022-07-23T08:17:17;19.70;99.90
33741;DHT22;20065;48.380;10.892;2022-07-23T08:20:05;19.90;99.90
33741;DHT22;20065;48.380;10.892;2022-07-23T08:23:00;20.00;99.90
33741;DHT22;20065;48.380;10.892;2022-07-23T08:25:48;20.10;99.90
33741;DHT22;20065;48.380;10.892;2022-07-23T08:28:34;20.40;99.90
33741;DHT22;20065;48.380;10.892;2022-07-23T08:31:21;20.50;99.90
33741;DHT22;20065;48.380;10.892;2022-07-23T08:34:09;20.50;99.90
33741;DHT22;20065;48.380;10.892;2022-07-23T08:36:55;20.70;99.90
33741;DHT22;20065;48.380;10.892;2022-07-23T08:39:42;20.90;99.90
33741;DHT22;20065;48.380;10.892;2022-07-23T08:42:28;21.10;99.90
33741;DHT22;20065;48.380;10.892;2022-07-23T08:45:19;21.10;99.90
33741;DHT22;20065;48.380;10.892;2022-07-23T08:51:04;21.40;99.90
33741;DHT22;20065;48.380;10.892;2022-07-23T08:53:51;21.70;99.90
33741;DHT22;20065;48.380;10.892;2022-07-23T08:56:38;22.00;99.90
33741;DHT22;20065;48.380;10.892;2022-07-23T08:59:24;22.10;99.90
33741;DHT22;20065;48.380;10.892;2022-07-23T09:02:12;22.20;99.90
33741;DHT22;20065;48.380;10.892;2022-07-23T09:04:58;22.50;99.90
33741;DHT22;20065;48.380;10.892;2022-07-23T09:11:04;22.70;99.90
33741;DHT22;20065;48.380;10.892;2022-07-23T09:13:54;22.60;99.90
33741;DHT22;20065;48.380;10.892;2022-07-23T09:16:44;22.80;99.90
33741;DHT22;20065;48.380;10.892;2022-07-23T09:19:30;22.90;99.90
33741;DHT22;20065;48.380;10.892;2022-07-23T09:22:26;22.90;99.90
33741;DHT22;20065;48.380;10.892;2022-07-23T09:25:16;22.90;99.90
33741;DHT22;20065;48.380;10.892;2022-07-23T09:28:02;23.30;99.90
33741;DHT22;20065;48.380;10.892;2022-07-23T09:30:52;23.40;99.90
33741;DHT22;20065;48.380;10.892;2022-07-23T09:33:39;23.70;99.90
33741;DHT22;20065;48.380;10.892;2022-07-23T09:36:29;24.00;99.90
33741;DHT22;20065;48.380;10.892;2022-07-23T09:39:22;24.00;99.90
33741;DHT22;20065;48.380;10.892;2022-07-23T09:45:10;24.30;99.90
33741;DHT22;20065;48.380;10.892;2022-07-23T09:48:15;24.30;99.90
33741;DHT22;20065;48.380;10.892;2022-07-23T09:51:04;24.30;99.90
33741;DHT22;20065;48.380;10.892;2022-07-23T09:53:51;24.30;99.90
33741;DHT22;20065;48.380;10.892;2022-07-23T09:56:38;24.30;99.90
33741;DHT22;20065;48.380;10.892;2022-07-23T09:59:28;24.80;99.90
33741;DHT22;20065;48.380;10.892;2022-07-23T10:02:14;24.90;99.90
33741;DHT22;20065;48.380;10.892;2022-07-23T10:05:30;25.20;99.90
33741;DHT22;20065;48.380;10.892;2022-07-23T10:08:35;25.20;99.90
33741;DHT22;20065;48.380;10.892;2022-07-23T10:12:02;25.80;99.90
33741;DHT22;20065;48.380;10.892;2022-07-23T10:15:09;25.20;99.90
33741;DHT22;20065;48.380;10.892;2022-07-23T10:17:55;25.00;99.90
33741;DHT22;20065;48.380;10.892;2022-07-23T10:20:42;25.00;99.90
33741;DHT22;20065;48.380;10.892;2022-07-23T10:23:38;25.30;99.90
33741;DHT22;20065;48.380;10.892;2022-07-23T10:33:12;25.40;99.90
33741;DHT22;20065;48.380;10.892;2022-07-23T10:39:24;25.00;99.90
33741;DHT22;20065;48.380;10.892;2022-07-23T10:42:12;25.20;99.90
33741;DHT22;20065;48.380;10.892;2022-07-23T10:44:59;25.20;99.90
33741;DHT22;20065;48.380;10.892;2022-07-23T10:47:45;25.60;99.90
33741;DHT22;20065;48.380;10.892;2022-07-23T10:50:31;26.30;99.90
33741;DHT22;20065;48.380;10.892;2022-07-23T10:53:20;25.80;99.90
33741;DHT22;20065;48.380;10.892;2022-07-23T10:56:06;25.50;99.90
33741;DHT22;20065;48.380;10.892;2022-07-23T10:58:52;25.60;99.90
33741;DHT22;20065;48.380;10.892;2022-07-23T11:01:48;26.20;99.90
33741;DHT22;20065;48.380;10.892;2022-07-23T11:05:06;25.90;99.90
33741;DHT22;20065;48.380;10.892;2022-07-23T11:13:44;25.70;99.90
33741;DHT22;20065;48.380;10.892;2022-07-23T11:16:31;25.80;99.90
33741;DHT22;20065;48.380;10.892;2022-07-23T11:19:31;26.40;99.90
33741;DHT22;20065;48.380;10.892;2022-07-23T11:22:50;26.40;99.90
33741;DHT22;20065;48.380;10.892;2022-07-23T11:25:38;26.00;99.90
33741;DHT22;20065;48.380;10.892;2022-07-23T11:28:28;26.30;99.90
33741;DHT22;20065;48.380;10.892;2022-07-23T11:31:18;26.50;99.90
33741;DHT22;20065;48.380;10.892;2022-07-23T11:34:38;27.50;99.90
33741;DHT22;20065;48.380;10.892;2022-07-23T11:37:37;27.10;99.90
33741;DHT22;20065;48.380;10.892;2022-07-23T11:40:25;26.90;99.90
33741;DHT22;20065;48.380;10.892;2022-07-23T11:43:12;27.20;99.90
33741;DHT22;20065;48.380;10.892;2022-07-23T11:46:00;27.20;99.90
33741;DHT22;20065;48.380;10.892;2022-07-23T11:48:46;26.90;99.90
33741;DHT22;20065;48.380;10.892;2022-07-23T11:51:32;26.20;99.90
33741;DHT22;20065;48.380;10.892;2022-07-23T11:54:18;26.30;99.90
33741;DHT22;20065;48.380;10.892;2022-07-23T11:57:05;26.20;99.90
33741;DHT22;20065;48.380;10.892;2022-07-23T11:59:54;26.50;99.90
33741;DHT22;20065;48.380;10.892;2022-07-23T12:02:43;27.20;99.90
33741;DHT22;20065;48.380;10.892;2022-07-23T12:05:33;27.70;99.90
33741;DHT22;20065;48.380;10.892;2022-07-23T12:08:19;27.20;99.90
33741;DHT22;20065;48.380;10.892;2022-07-23T12:11:06;28.30;99.90
33741;DHT22;20065;48.380;10.892;2022-07-23T12:13:58;29.00;99.90
33741;DHT22;20065;48.380;10.892;2022-07-23T12:16:44;28.00;99.90
33741;DHT22;20065;48.380;10.892;2022-07-23T12:19:30;26.70;99.90
33741;DHT22;20065;48.380;10.892;2022-07-23T12:22:16;26.50;99.90
33741;DHT22;20065;48.380;10.892;2022-07-23T12:25:09;26.10;99.90
33741;DHT22;20065;48.380;10.892;2022-07-23T12:30:53;26.20;99.90
33741;DHT22;20065;48.380;10.892;2022-07-23T12:33:40;26.40;99.90
33741;DHT22;20065;48.380;10.892;2022-07-23T12:36:37;26.50;99.90
33741;DHT22;20065;48.380;10.892;2022-07-23T12:39:31;26.90;99.90
33741;DHT22;20065;48.380;10.892;2022-07-23T12:42:18;27.20;99.90
33741;DHT22;20065;48.380;10.892;2022-07-23T12:45:11;27.30;99.90
33741;DHT22;20065;48.380;10.892;2022-07-23T12:48:01;28.30;99.90
33741;DHT22;20065;48.380;10.892;2022-07-23T12:53:40;28.70;99.90
33741;DHT22;20065;48.380;10.892;2022-07-23T12:56:33;27.00;99.90
33741;DHT22;20065;48.380;10.892;2022-07-23T12:59:19;26.30;99.90
33741;DHT22;20065;48.380;10.892;2022-07-23T13:02:08;27.00;99.90
33741;DHT22;20065;48.380;10.892;2022-07-23T13:04:55;27.00;99.90
33741;DHT22;20065;48.380;10.892;2022-07-23T13:07:41;27.70;99.90
33741;DHT22;20065;48.380;10.892;2022-07-23T13:10:27;27.70;99.90
33741;DHT22;20065;48.380;10.892;2022-07-23T13:13:14;28.30;99.90
33741;DHT22;20065;48.380;10.892;2022-07-23T13:16:01;28.20;99.90
33741;DHT22;20065;48.380;10.892;2022-07-23T13:18:51;27.50;99.90
33741;DHT22;20065;48.380;10.892;2022-07-23T13:21:38;26.80;99.90
33741;DHT22;20065;48.380;10.892;2022-07-23T13:24:28;26.50;99.90
33741;DHT22;20065;48.380;10.892;2022-07-23T13:27:14;26.30;99.90
33741;DHT22;20065;48.380;10.892;2022-07-23T13:30:00;25.80;99.90
33741;DHT22;20065;48.380;10.892;2022-07-23T13:32:51;25.70;99.90
33741;DHT22;20065;48.380;10.892;2022-07-23T13:35:38;25.90;99.90
33741;DHT22;20065;48.380;10.892;2022-07-23T13:38:24;25.70;99.90
33741;DHT22;20065;48.380;10.892;2022-07-23T13:41:11;26.70;99.90
33741;DHT22;20065;48.380;10.892;2022-07-23T13:43:57;26.70;99.90
33741;DHT22;20065;48.380;10.892;2022-07-23T13:46:44;27.50;99.90
33741;DHT22;20065;48.380;10.892;2022-07-23T13:49:30;27.40;99.90
33741;DHT22;20065;48.380;10.892;2022-07-23T13:52:19;27.50;99.90
33741;DHT22;20065;48.380;10.892;2022-07-23T13:55:06;26.90;99.90
33741;DHT22;20065;48.380;10.892;2022-07-23T13:57:53;26.90;99.90
33741;DHT22;20065;48.380;10.892;2022-07-23T14:00:42;26.80;99.90
33741;DHT22;20065;48.380;10.892;2022-07-23T14:03:29;26.40;99.90
33741;DHT22;20065;48.380;10.892;2022-07-23T14:06:15;26.70;99.90
33741;DHT22;20065;48.380;10.892;2022-07-23T14:09:01;27.30;99.90
33741;DHT22;20065;48.380;10.892;2022-07-23T14:11:48;27.50;99.90
33741;DHT22;20065;48.380;10.892;2022-07-23T14:14:34;27.70;99.90
33741;DHT22;20065;48.380;10.892;2022-07-23T14:17:20;28.60;99.90
33741;DHT22;20065;48.380;10.892;2022-07-23T14:20:08;29.40;99.90
33741;DHT22;20065;48.380;10.892;2022-07-23T14:22:54;29.20;99.90
33741;DHT22;20065;48.380;10.892;2022-07-23T14:25:42;29.20;99.90
33741;DHT22;20065;48.380;10.892;2022-07-23T14:28:28;29.90;99.90
33741;DHT22;20065;48.380;10.892;2022-07-23T14:31:15;29.90;99.90
33741;DHT22;20065;48.380;10.892;2022-07-23T14:34:01;30.60;99.90
33741;DHT22;20065;48.380;10.892;2022-07-23T14:36:47;29.30;99.90
33741;DHT22;20065;48.380;10.892;2022-07-23T14:39:33;28.90;99.90
33741;DHT22;20065;48.380;10.892;2022-07-23T14:42:20;27.60;99.90
33741;DHT22;20065;48.380;10.892;2022-07-23T14:45:06;28.80;99.90
33741;DHT22;20065;48.380;10.892;2022-07-23T14:47:53;27.90;99.90
33741;DHT22;20065;48.380;10.892;2022-07-23T14:50:40;27.40;99.90
33741;DHT22;20065;48.380;10.892;2022-07-23T14:53:26;27.30;99.90
33741;DHT22;20065;48.380;10.892;2022-07-23T14:56:13;27.30;99.90
33741;DHT22;20065;48.380;10.892;2022-07-23T14:59:03;27.40;99.90
33741;DHT22;20065;48.380;10.892;2022-07-23T15:01:49;26.90;99.90
33741;DHT22;20065;48.380;10.892;2022-07-23T15:04:36;26.50;99.90
33741;DHT22;20065;48.380;10.892;2022-07-23T15:07:22;26.80;99.90
33741;DHT22;20065;48.380;10.892;2022-07-23T15:10:08;26.80;99.90
33741;DHT22;20065;48.380;10.892;2022-07-23T15:12:54;26.90;99.90
33741;DHT22;20065;48.380;10.892;2022-07-23T15:15:41;26.60;99.90
33741;DHT22;20065;48.380;10.892;2022-07-23T15:18:27;26.50;99.90
33741;DHT22;20065;48.380;10.892;2022-07-23T15:21:14;26.70;99.90
33741;DHT22;20065;48.380;10.892;2022-07-23T15:24:00;26.70;99.90
33741;DHT22;20065;48.380;10.892;2022-07-23T15:26:50;26.70;99.90
33741;DHT22;20065;48.380;10.892;2022-07-23T15:29:36;26.70;99.90
33741;DHT22;20065;48.380;10.892;2022-07-23T15:32:22;26.70;99.90
33741;DHT22;20065;48.380;10.892;2022-07-23T15:35:10;26.70;99.90
33741;DHT22;20065;48.380;10.892;2022-07-23T15:37:57;26.70;99.90
33741;DHT22;20065;48.380;10.892;2022-07-23T15:40:43;26.70;99.90
33741;DHT22;20065;48.380;10.892;2022-07-23T15:43:29;26.70;99.90
33741;DHT22;20065;48.380;10.892;2022-07-23T15:46:17;26.50;99.90
33741;DHT22;20065;48.380;10.892;2022-07-23T15:49:07;26.10;99.90
33741;DHT22;20065;48.380;10.892;2022-07-23T15:51:55;26.00;99.90
33741;DHT22;20065;48.380;10.892;2022-07-23T15:54:41;25.90;99.90
33741;DHT22;20065;48.380;10.892;2022-07-23T15:57:28;26.00;99.90
33741;DHT22;20065;48.380;10.892;2022-07-23T16:00:14;26.40;99.90
33741;DHT22;20065;48.380;10.892;2022-07-23T16:03:00;26.80;99.90
33741;DHT22;20065;48.380;10.892;2022-07-23T16:05:47;27.00;99.90
33741;DHT22;20065;48.380;10.892;2022-07-23T16:08:33;27.50;99.90
33741;DHT22;20065;48.380;10.892;2022-07-23T16:11:19;27.50;99.90
33741;DHT22;20065;48.380;10.892;2022-07-23T16:14:06;26.80;99.90
33741;DHT22;20065;48.380;10.892;2022-07-23T16:16:52;26.90;99.90
33741;DHT22;20065;48.380;10.892;2022-07-23T16:19:41;27.10;99.90
33741;DHT22;20065;48.380;10.892;2022-07-23T16:22:27;27.30;99.90
33741;DHT22;20065;48.380;10.892;2022-07-23T16:25:13;27.50;99.90
33741;DHT22;20065;48.380;10.892;2022-07-23T16:28:00;27.50;99.90
33741;DHT22;20065;48.380;10.892;2022-07-23T16:30:47;27.40;99.90
33741;DHT22;20065;48.380;10.892;2022-07-23T16:33:33;27.20;99.90
33741;DHT22;20065;48.380;10.892;2022-07-23T16:36:19;27.00;99.90
33741;DHT22;20065;48.380;10.892;2022-07-23T16:39:07;27.00;99.90
33741;DHT22;20065;48.380;10.892;2022-07-23T16:41:54;26.60;99.90
33741;DHT22;20065;48.380;10.892;2022-07-23T16:44:40;26.70;99.90
33741;DHT22;20065;48.380;10.892;2022-07-23T16:47:26;26.80;99.90
33741;DHT22;20065;48.380;10.892;2022-07-23T16:50:15;26.80;99.90
33741;DHT22;20065;48.380;10.892;2022-07-23T16:53:02;26.80;99.90
33741;DHT22;20065;48.380;10.892;2022-07-23T16:55:48;26.70;99.90
33741;DHT22;20065;48.380;10.892;2022-07-23T16:58:34;26.80;99.90
33741;DHT22;20065;48.380;10.892;2022-07-23T17:01:20;27.10;99.90
33741;DHT22;20065;48.380;10.892;2022-07-23T17:04:07;27.30;99.90
33741;DHT22;20065;48.380;10.892;2022-07-23T17:06:53;27.40;99.90
33741;DHT22;20065;48.380;10.892;2022-07-23T17:09:39;27.40;99.90
33741;DHT22;20065;48.380;10.892;2022-07-23T17:12:27;27.30;99.90
33741;DHT22;20065;48.380;10.892;2022-07-23T17:15:19;27.40;99.90
33741;DHT22;20065;48.380;10.892;2022-07-23T17:18:05;27.60;99.90
33741;DHT22;20065;48.380;10.892;2022-07-23T17:20:52;27.20;99.90
33741;DHT22;20065;48.380;10.892;2022-07-23T17:23:38;27.30;99.90
33741;DHT22;20065;48.380;10.892;2022-07-23T17:26:25;27.20;99.90
33741;DHT22;20065;48.380;10.892;2022-07-23T17:29:13;27.00;99.90
33741;DHT22;20065;48.380;10.892;2022-07-23T17:31:59;27.00;99.90
33741;DHT22;20065;48.380;10.892;2022-07-23T17:34:46;26.70;99.90
33741;DHT22;20065;48.380;10.892;2022-07-23T17:37:33;27.00;99.90
33741;DHT22;20065;48.380;10.892;2022-07-23T17:40:20;27.10;99.90
33741;DHT22;20065;48.380;10.892;2022-07-23T17:43:06;27.10;99.90
33741;DHT22;20065;48.380;10.892;2022-07-23T17:45:52;27.00;99.90
33741;DHT22;20065;48.380;10.892;2022-07-23T17:48:38;27.10;99.90
33741;DHT22;20065;48.380;10.892;2022-07-23T17:51:27;27.10;99.90
33741;DHT22;20065;48.380;10.892;2022-07-23T17:54:13;27.10;99.90